createdAt,value
2019-02-22T00:02:32.431Z,47.80
2019-02-22T00:07:36.237Z,47.83
2019-02-22T00:12:40.146Z,47.83
2019-02-22T00:17:44.067Z,47.88
2019-02-22T00:22:47.873Z,47.73
2019-02-22T00:27:51.650Z,47.57
2019-02-22T00:32:55.473Z,47.57
2019-02-22T00:37:59.299Z,48.09
2019-02-22T00:43:03.141Z,47.65
2019-02-22T00:48:06.933Z,47.71
2019-02-22T00:53:10.750Z,47.71
2019-02-22T00:58:14.528Z,47.31
2019-02-22T01:03:18.475Z,47.79
2019-02-22T01:08:22.265Z,48.18
2019-02-22T01:13:26.125Z,47.84
2019-02-22T01:18:29.986Z,47.66
2019-02-22T01:23:33.775Z,47.43
2019-02-22T01:28:37.558Z,47.43
2019-02-22T01:33:41.374Z,47.28
2019-02-22T01:38:45.242Z,47.69
2019-02-22T01:43:49.208Z,48.09
2019-02-22T01:48:53.108Z,47.80
2019-02-22T01:53:56.909Z,48.58
2019-02-22T01:59:00.698Z,48.05
2019-02-22T02:04:04.499Z,48.05
2019-02-22T02:09:08.378Z,48.26
2019-02-22T02:14:12.185Z,48.39
2019-02-22T02:19:16.027Z,48.89
2019-02-22T02:24:19.815Z,48.86
2019-02-22T02:29:23.701Z,48.86
2019-02-22T02:34:27.498Z,48.65
2019-02-22T02:39:31.303Z,48.76
2019-02-22T02:44:35.152Z,48.71
2019-02-22T02:49:38.944Z,48.88
2019-02-22T02:54:42.796Z,48.88
2019-02-22T02:59:46.568Z,49.39
2019-02-22T03:04:50.341Z,49.39
2019-02-22T03:09:54.316Z,49.29
2019-02-22T03:14:58.097Z,49.29
2019-02-22T03:20:01.962Z,48.90
2019-02-22T03:25:06.374Z,48.90
2019-02-22T03:30:10.245Z,49.25
2019-02-22T03:35:14.043Z,48.64
2019-02-22T03:40:17.872Z,48.75
2019-02-22T03:45:21.681Z,48.75
2019-02-22T03:50:25.590Z,49.30
2019-02-22T03:55:29.410Z,49.30
2019-02-22T04:00:33.337Z,50.08
2019-02-22T04:05:37.168Z,50.28
2019-02-22T04:10:40.984Z,50.40
2019-02-22T04:15:44.806Z,50.26
2019-02-22T04:20:48.616Z,50.58
2019-02-22T04:25:52.436Z,50.58
2019-02-22T04:30:56.412Z,50.14
2019-02-22T04:36:00.324Z,50.27
2019-02-22T04:41:04.158Z,50.09
2019-02-22T04:46:07.981Z,50.09
2019-02-22T04:51:11.808Z,50.15
2019-02-22T04:56:15.689Z,50.55
2019-02-22T05:01:19.524Z,50.55
2019-02-22T05:06:23.339Z,49.69
2019-02-22T05:11:27.284Z,49.69
2019-02-22T05:16:31.096Z,50.04
2019-02-22T05:21:35.011Z,50.13
2019-02-22T05:26:38.805Z,50.28
2019-02-22T05:31:42.606Z,49.96
2019-02-22T05:36:46.412Z,50.45
2019-02-22T05:41:50.351Z,49.73
2019-02-22T05:47:00.307Z,49.63
2019-02-22T05:51:59.903Z,49.92
2019-02-22T05:57:03.732Z,50.05
2019-02-22T06:02:14.583Z,50.05
2019-02-22T06:07:18.743Z,50.14
2019-02-22T06:12:33.846Z,50.36
2019-02-22T06:17:28.098Z,50.67
2019-02-22T06:22:31.893Z,50.71
2019-02-22T06:27:35.783Z,50.71
2019-02-22T06:32:42.141Z,50.48
2019-02-22T06:37:45.261Z,50.48
2019-02-22T06:42:49.095Z,50.49
2019-02-22T06:47:52.908Z,51.05
2019-02-22T06:52:56.788Z,50.83
2019-02-22T06:58:00.656Z,50.32
2019-02-22T07:03:04.454Z,50.70
2019-02-22T07:08:13.497Z,51.08
2019-02-22T07:13:19.096Z,51.31
2019-02-22T07:18:22.892Z,51.31
2019-02-22T07:23:26.730Z,50.76
2019-02-22T07:28:30.561Z,51.30
2019-02-22T07:33:34.447Z,51.01
2019-02-22T07:38:38.427Z,51.01
2019-02-22T07:43:42.451Z,50.67
2019-02-22T07:48:46.248Z,50.67
2019-02-22T07:53:50.089Z,48.14
2019-02-22T07:58:54.019Z,46.41
2019-02-22T08:03:57.822Z,45.63
2019-02-22T08:09:01.698Z,44.39
2019-02-22T08:14:07.817Z,44.39
2019-02-22T08:19:11.475Z,43.75
2019-02-22T08:24:15.359Z,43.72
2019-02-22T08:29:19.134Z,44.91
2019-02-22T08:34:22.938Z,44.65
2019-02-22T08:44:43.322Z,44.98
2019-02-22T08:49:55.071Z,44.93
2019-02-22T08:54:58.914Z,43.95
2019-02-22T09:00:02.774Z,43.85
2019-02-22T09:05:07.121Z,44.83
2019-02-22T09:10:11.025Z,45.05
2019-02-22T09:15:14.833Z,45.05
2019-02-22T09:20:18.706Z,44.98
2019-02-22T09:25:22.586Z,45.48
2019-02-22T09:30:26.496Z,45.48
2019-02-22T09:35:30.411Z,46.42
2019-02-22T09:40:34.201Z,46.42
2019-02-22T09:45:37.985Z,46.57
2019-02-22T09:50:41.870Z,46.76
2019-02-22T09:55:45.658Z,46.70
2019-02-22T10:00:49.784Z,46.68
2019-02-22T10:05:53.624Z,46.56
2019-02-22T10:10:57.707Z,47.08
2019-02-22T10:16:01.501Z,47.08
2019-02-22T10:21:05.290Z,46.68
2019-02-22T10:26:09.525Z,47.01
2019-02-22T10:31:13.319Z,46.88
2019-02-22T10:36:17.099Z,46.88
2019-02-22T10:41:20.907Z,47.86
2019-02-22T10:46:24.724Z,47.40
2019-02-22T10:51:28.499Z,47.85
2019-02-22T10:56:32.307Z,47.85
2019-02-22T11:01:36.113Z,48.84
2019-02-22T11:06:42.287Z,49.09
2019-02-22T11:11:46.073Z,49.18
2019-02-22T11:16:49.850Z,49.18
2019-02-22T11:21:53.649Z,49.32
2019-02-22T11:26:57.469Z,49.80
2019-02-22T11:32:01.256Z,49.80
2019-02-22T11:37:05.167Z,50.32
2019-02-22T11:42:08.969Z,50.59
2019-02-22T11:47:12.802Z,50.58
2019-02-22T11:52:16.587Z,50.58
2019-02-22T11:57:20.597Z,50.05
2019-02-22T12:02:24.470Z,50.16
2019-02-22T12:07:28.341Z,50.16
2019-02-22T12:12:32.145Z,50.29
2019-02-22T12:17:35.934Z,50.59
2019-02-22T12:22:39.741Z,50.45
2019-02-22T12:27:43.533Z,50.24
2019-02-22T12:32:47.312Z,50.51
2019-02-22T12:37:51.094Z,50.51
2019-02-22T12:42:54.901Z,50.51
2019-02-22T12:47:58.682Z,50.16
2019-02-22T12:53:02.546Z,50.16
2019-02-22T12:58:06.340Z,50.32
2019-02-22T13:03:10.174Z,50.42
2019-02-22T13:08:13.946Z,50.71
2019-02-22T13:13:17.725Z,50.71
2019-02-22T13:18:21.527Z,50.52
2019-02-22T13:23:25.378Z,50.07
2019-02-22T13:28:29.151Z,50.07
2019-02-22T13:33:32.962Z,50.45
2019-02-22T13:38:36.850Z,50.34
2019-02-22T13:43:40.785Z,50.32
2019-02-22T13:48:44.723Z,50.11
2019-02-22T13:53:48.529Z,50.91
2019-02-22T13:58:52.315Z,50.80
2019-02-22T14:03:56.172Z,50.56
2019-02-22T14:08:59.944Z,50.56
2019-02-22T14:14:03.782Z,50.66
2019-02-22T14:19:08.726Z,50.69
2019-02-22T14:24:12.526Z,50.69
2019-02-22T14:29:16.338Z,50.70
2019-02-22T14:34:20.175Z,50.45
2019-02-22T14:39:23.956Z,50.69
2019-02-22T14:44:27.766Z,49.88
2019-02-22T14:49:31.562Z,49.84
2019-02-22T14:54:35.481Z,50.38
2019-02-22T14:59:39.310Z,50.38
2019-02-22T15:04:43.195Z,50.46
2019-02-22T15:09:47.051Z,50.25
2019-02-22T15:14:50.887Z,50.22
2019-02-22T15:19:54.672Z,50.22
2019-02-22T15:24:58.472Z,50.41
2019-02-22T15:30:02.515Z,50.16
2019-02-22T15:35:08.257Z,50.16
2019-02-22T15:40:12.077Z,49.26
2019-02-22T15:45:16.344Z,49.42
2019-02-22T15:50:20.186Z,49.42
2019-02-22T15:55:23.974Z,48.95
2019-02-22T16:00:28.897Z,48.56
2019-02-22T16:05:34.946Z,48.59
2019-02-22T16:10:38.725Z,48.51
2019-02-22T16:15:42.498Z,48.69
2019-02-22T16:20:46.320Z,48.69
2019-02-22T16:25:50.119Z,48.55
2019-02-22T16:30:53.903Z,48.52
2019-02-22T16:35:57.679Z,48.65
2019-02-22T16:41:01.457Z,48.65
2019-02-22T16:46:05.282Z,48.23
2019-02-22T16:51:09.066Z,48.62
2019-02-22T16:56:13.105Z,47.92
2019-02-22T17:01:16.887Z,47.92
2019-02-22T17:06:20.704Z,47.92
2019-02-22T17:11:24.488Z,45.40
2019-02-22T17:16:28.297Z,43.19
2019-02-22T17:21:32.142Z,43.19
2019-02-22T17:26:35.941Z,42.38
2019-02-22T17:31:39.728Z,41.81
2019-02-22T17:36:43.588Z,43.15
2019-02-22T17:41:47.387Z,43.42
2019-02-22T17:46:57.718Z,43.42
2019-02-22T17:51:56.756Z,43.62
2019-02-22T17:57:00.552Z,43.68
2019-02-22T18:02:04.329Z,44.23
2019-02-22T18:07:08.123Z,43.45
2019-02-22T18:12:11.929Z,43.66
2019-02-22T18:17:15.720Z,43.07
2019-02-22T18:22:25.780Z,43.52
2019-02-22T18:27:25.027Z,43.70
2019-02-22T18:32:28.797Z,43.70
2019-02-22T18:37:32.663Z,44.08
2019-02-22T18:42:36.772Z,44.59
2019-02-22T18:47:40.572Z,44.04
2019-02-22T18:52:44.384Z,44.04
2019-02-22T18:57:48.163Z,43.52
2019-02-22T19:02:51.941Z,43.52
2019-02-22T19:07:55.715Z,43.43
2019-02-22T19:12:59.511Z,43.89
2019-02-22T19:18:03.326Z,43.89
2019-02-22T19:23:07.211Z,44.05
2019-02-22T19:28:10.985Z,44.05
2019-02-22T19:33:14.858Z,44.27
2019-02-22T19:38:18.664Z,44.27
2019-02-22T19:43:22.477Z,44.56
2019-02-22T19:48:26.287Z,44.69
2019-02-22T19:53:30.127Z,43.52
2019-02-22T19:58:33.988Z,43.52
2019-02-22T20:03:37.907Z,43.18
2019-02-22T20:08:41.713Z,44.40
2019-02-22T20:13:45.567Z,44.76
2019-02-22T20:18:49.432Z,44.76
2019-02-22T20:23:53.236Z,45.66
2019-02-22T20:28:57.050Z,45.66
2019-02-22T20:34:00.857Z,45.46
2019-02-22T20:39:05.614Z,45.46
2019-02-22T20:44:09.429Z,46.06
2019-02-22T20:49:13.258Z,46.06
2019-02-22T20:54:17.583Z,46.26
2019-02-22T20:59:21.372Z,46.26
2019-02-22T21:04:25.170Z,46.49
2019-02-22T21:09:28.992Z,47.01
2019-02-22T21:14:32.950Z,46.77
2019-02-22T21:19:36.814Z,46.71
2019-02-22T21:24:40.651Z,46.82
2019-02-22T21:29:46.439Z,46.83
2019-02-22T21:34:50.000Z,46.82
2019-02-22T21:39:53.931Z,47.27
2019-02-22T21:44:57.740Z,47.51
2019-02-22T21:50:01.578Z,47.51
2019-02-22T21:55:06.113Z,47.42
2019-02-22T22:00:13.295Z,47.55
2019-02-22T22:05:17.191Z,47.55
2019-02-22T22:10:20.984Z,47.37
2019-02-22T22:15:24.865Z,47.62
2019-02-22T22:20:29.940Z,47.47
2019-02-22T22:25:33.798Z,47.28
2019-02-22T22:30:37.694Z,47.28
2019-02-22T22:35:41.538Z,47.70
2019-02-22T22:40:45.389Z,47.72
2019-02-22T22:45:49.268Z,47.51
2019-02-22T22:50:53.160Z,47.22
2019-02-22T22:55:57.029Z,47.22
2019-02-22T23:01:12.438Z,48.06
2019-02-22T23:06:17.496Z,48.47
2019-02-22T23:11:21.323Z,48.35
2019-02-22T23:16:25.200Z,48.44
2019-02-22T23:21:30.271Z,48.44
2019-02-22T23:26:34.303Z,48.80
2019-02-22T23:31:38.193Z,48.63
2019-02-22T23:36:42.089Z,48.63
2019-02-22T23:41:45.922Z,48.68
2019-02-22T23:46:49.760Z,48.71
2019-02-22T23:51:53.801Z,48.93
2019-02-22T23:56:57.727Z,48.99
